Time;durP1;ratioP1;P1;durP2;ratioP2;P2;SDS_P1;SDS_P2;PMS_P1;PMS_P2;Temp;Humidity;BMP_temperature;BMP_pressure;BME280_temperature;BME280_humidity;BME280_pressure;Samples;Min_cycle;Max_cycle;Signal;HPM_P1;HPM_P2
2022/09/19 00:02:10;;;;;;;8.70;2.27;;;9.60;99.90;;;;;;5073751;28;20207;-61
2022/09/19 00:04:38;;;;;;;7.67;2.23;;;9.60;99.90;;;;;;5073687;28;20184;-61
2022/09/19 00:07:08;;;;;;;4.20;2.33;;;9.60;99.90;;;;;;5073931;28;20647;-61
2022/09/19 00:09:36;;;;;;;4.47;2.20;;;9.60;99.90;;;;;;5073740;28;20191;-62
2022/09/19 00:12:05;;;;;;;5.57;2.03;;;9.50;99.90;;;;;;5073816;28;20655;-61
2022/09/19 00:14:35;;;;;;;5.67;2.40;;;9.60;99.90;;;;;;5073677;28;20192;-61
2022/09/19 00:17:07;;;;;;;8.07;2.30;;;9.60;99.90;;;;;;5073877;28;20208;-61
2022/09/19 00:19:37;;;;;;;7.73;2.27;;;9.50;99.90;;;;;;5073546;28;20195;-61
2022/09/19 00:22:09;;;;;;;3.70;1.97;;;9.50;99.90;;;;;;5073608;28;20222;-61
2022/09/19 00:24:47;;;;;;;6.00;2.23;;;9.50;99.90;;;;;;5074158;28;20530;-61
2022/09/19 00:27:19;;;;;;;11.83;2.30;;;9.50;99.90;;;;;;5073810;28;20192;-62
2022/09/19 00:29:48;;;;;;;4.40;2.43;;;9.40;99.90;;;;;;5073528;28;20192;-62
2022/09/19 00:32:17;;;;;;;7.03;2.40;;;9.40;99.90;;;;;;5074093;28;20211;-61
2022/09/19 00:34:47;;;;;;;4.90;2.00;;;9.40;99.90;;;;;;5073976;28;20542;-62
2022/09/19 00:37:19;;;;;;;8.70;2.23;;;9.40;99.90;;;;;;5074127;28;20199;-61
2022/09/19 00:39:48;;;;;;;3.80;2.00;;;9.40;99.90;;;;;;5073423;28;20219;-62
2022/09/19 00:42:18;;;;;;;9.30;2.13;;;9.30;99.90;;;;;;5073499;28;20605;-62
2022/09/19 00:45:00;;;;;;;14.30;2.10;;;9.30;99.90;;;;;;5072377;28;20191;-62
2022/09/19 00:47:38;;;;;;;5.63;2.20;;;9.30;99.90;;;;;;5073041;28;20231;-61
2022/09/19 00:50:15;;;;;;;11.23;2.30;;;9.30;99.90;;;;;;5072046;28;20180;-61
2022/09/19 00:52:49;;;;;;;6.53;2.00;;;9.30;99.90;;;;;;5106563;28;20642;-61
2022/09/19 00:55:17;;;;;;;5.47;1.90;;;9.30;99.90;;;;;;5073340;28;20558;-61
2022/09/19 00:58:00;;;;;;;7.10;2.00;;;9.30;99.90;;;;;;5073160;28;20214;-61
2022/09/19 01:00:30;;;;;;;7.33;2.23;;;9.30;99.90;;;;;;5073102;28;20176;-61
2022/09/19 01:07:51;;;;;;;7.50;2.50;;;9.20;99.90;;;;;;5053101;28;20299;-62
2022/09/19 01:10:34;;;;;;;7.37;2.40;;;9.20;99.90;;;;;;5085789;28;20520;-61
2022/09/19 01:13:09;;;;;;;5.27;2.27;;;9.20;99.90;;;;;;5052528;28;20201;-61
2022/09/19 01:15:51;;;;;;;6.90;2.20;;;9.20;99.90;;;;;;5053672;28;20231;-61
2022/09/19 01:18:26;;;;;;;8.77;2.37;;;9.20;99.90;;;;;;5057336;28;20231;-61
2022/09/19 01:24:48;;;;;;;8.00;2.07;;;9.20;99.90;;;;;;5056561;28;20643;-61
2022/09/19 01:28:08;;;;;;;8.30;2.47;;;9.20;99.90;;;;;;5089410;28;20196;-61
2022/09/19 01:30:43;;;;;;;7.63;2.20;;;9.20;99.90;;;;;;5057305;28;20219;-61
2022/09/19 01:33:19;;;;;;;5.40;2.10;;;9.20;99.90;;;;;;5089362;28;20185;-61
2022/09/19 01:35:51;;;;;;;8.60;2.97;;;9.20;99.90;;;;;;5056680;28;20200;-61
2022/09/19 01:38:23;;;;;;;7.47;2.10;;;9.20;99.90;;;;;;5057196;28;20532;-61
2022/09/19 01:40:53;;;;;;;10.27;2.23;;;9.20;99.90;;;;;;5056987;28;20189;-61
2022/09/19 01:43:22;;;;;;;9.97;2.13;;;9.20;99.90;;;;;;5056887;28;20196;-61
2022/09/19 01:45:58;;;;;;;8.07;2.30;;;9.20;99.90;;;;;;5056396;28;20529;-61
2022/09/19 01:48:38;;;;;;;11.20;2.10;;;9.20;99.90;;;;;;5088747;28;20220;-61
2022/09/19 01:51:24;;;;;;;10.33;2.20;;;9.20;99.90;;;;;;5056962;28;20188;-61
2022/09/19 01:54:20;;;;;;;7.60;2.40;;;9.20;99.90;;;;;;5056538;28;20185;-61
2022/09/19 01:56:56;;;;;;;2.87;1.97;;;9.20;99.90;;;;;;5076468;28;20192;-60
2022/09/19 01:59:41;;;;;;;11.20;2.10;;;9.20;99.90;;;;;;5071861;28;20180;-61
2022/09/19 02:02:21;;;;;;;6.67;2.27;;;9.10;99.90;;;;;;5054910;28;20205;-61
2022/09/19 02:04:58;;;;;;;5.00;2.10;;;9.10;99.90;;;;;;5056856;28;20231;-61
2022/09/19 02:07:32;;;;;;;7.03;2.63;;;9.10;99.90;;;;;;5056528;28;20199;-61
2022/09/19 02:10:06;;;;;;;6.83;2.13;;;9.10;99.90;;;;;;5055634;28;20199;-61
2022/09/19 02:12:39;;;;;;;6.17;2.33;;;9.00;99.90;;;;;;5056358;28;20173;-62
2022/09/19 02:15:11;;;;;;;6.87;1.73;;;9.00;99.90;;;;;;5055842;28;20693;-61
2022/09/19 02:17:50;;;;;;;6.70;2.23;;;9.00;99.90;;;;;;5055913;28;20188;-62
2022/09/19 02:20:24;;;;;;;6.23;2.23;;;9.00;99.90;;;;;;5055908;28;20207;-61
2022/09/19 02:22:56;;;;;;;7.43;2.00;;;8.90;99.90;;;;;;5054339;28;20219;-61
2022/09/19 02:25:33;;;;;;;8.87;2.27;;;8.90;99.90;;;;;;5055876;28;20197;-61
2022/09/19 02:28:06;;;;;;;2.83;1.90;;;8.80;99.90;;;;;;5071029;28;20207;-61
2022/09/19 02:30:36;;;;;;;5.43;1.97;;;8.80;99.90;;;;;;5088953;28;20191;-62
2022/09/19 02:33:06;;;;;;;5.83;2.07;;;8.80;99.90;;;;;;5096014;28;20188;-61
2022/09/19 02:35:42;;;;;;;4.17;2.00;;;8.80;99.90;;;;;;5095927;28;20187;-61
2022/09/19 02:38:19;;;;;;;16.17;2.63;;;8.70;99.90;;;;;;5094991;28;20265;-62
2022/09/19 02:40:52;;;;;;;6.87;2.10;;;8.70;99.90;;;;;;5078089;28;20172;-61
2022/09/19 02:43:31;;;;;;;7.73;2.30;;;8.70;99.90;;;;;;5095793;28;20215;-61
2022/09/19 02:46:06;;;;;;;7.80;2.40;;;8.70;99.90;;;;;;5095397;28;20227;-61
2022/09/19 02:48:45;;;;;;;11.73;2.63;;;8.70;99.90;;;;;;5094837;28;20261;-61
2022/09/19 02:51:19;;;;;;;4.93;2.20;;;8.70;99.90;;;;;;5094512;28;20195;-61
2022/09/19 02:53:50;;;;;;;6.77;2.30;;;8.70;99.90;;;;;;5093751;28;20259;-61
2022/09/19 02:56:21;;;;;;;5.07;2.13;;;8.70;99.90;;;;;;5079195;28;20203;-61
2022/09/19 02:58:53;;;;;;;11.53;2.87;;;8.60;99.90;;;;;;5074330;28;20180;-62
2022/09/19 03:01:24;;;;;;;5.07;2.20;;;8.60;99.90;;;;;;5072786;28;20192;-61
2022/09/19 03:04:13;;;;;;;8.33;2.43;;;8.60;99.90;;;;;;5074398;28;20519;-61
2022/09/19 03:06:47;;;;;;;7.77;2.13;;;8.60;99.90;;;;;;5074241;28;20194;-61
2022/09/19 03:09:19;;;;;;;8.33;2.40;;;8.60;99.90;;;;;;5072768;28;20188;-61
2022/09/19 03:11:57;;;;;;;13.27;2.50;;;8.60;99.90;;;;;;5074459;28;20176;-61
2022/09/19 03:14:25;;;;;;;3.60;2.37;;;8.60;99.90;;;;;;5074197;28;20191;-61
2022/09/19 03:16:56;;;;;;;7.07;2.27;;;8.60;99.90;;;;;;5074193;28;20211;-61
2022/09/19 03:19:26;;;;;;;12.73;2.63;;;8.60;99.90;;;;;;5073875;28;20550;-61
2022/09/19 03:21:55;;;;;;;14.40;2.57;;;8.60;99.90;;;;;;5073753;28;20189;-61
2022/09/19 03:24:24;;;;;;;5.23;2.50;;;8.60;99.90;;;;;;5073730;28;20547;-60
2022/09/19 03:26:52;;;;;;;10.13;3.00;;;8.60;99.90;;;;;;5074606;28;20662;-60
2022/09/19 03:29:20;;;;;;;4.33;2.70;;;8.60;99.90;;;;;;5094211;28;20198;-61
2022/09/19 03:31:53;;;;;;;6.83;2.70;;;8.60;99.90;;;;;;5092748;28;20814;-61
2022/09/19 03:34:25;;;;;;;10.60;4.37;;;8.50;99.90;;;;;;5093847;28;20195;-61
2022/09/19 03:36:54;;;;;;;10.40;3.90;;;8.50;99.90;;;;;;5089493;28;20547;-61
2022/09/19 03:39:22;;;;;;;11.10;3.50;;;8.50;99.90;;;;;;5072681;28;20196;-61
2022/09/19 03:41:51;;;;;;;7.20;2.93;;;8.50;99.90;;;;;;5073275;28;20282;-61
2022/09/19 03:44:19;;;;;;;7.23;2.80;;;8.50;99.90;;;;;;5073414;28;20680;-60
2022/09/19 03:46:48;;;;;;;8.67;3.30;;;8.50;99.90;;;;;;5026303;28;1351828;-61
2022/09/19 03:49:17;;;;;;;10.63;2.70;;;8.50;99.90;;;;;;5074410;28;20548;-61
2022/09/19 03:51:47;;;;;;;8.00;2.60;;;8.50;99.90;;;;;;5074385;28;20188;-61
2022/09/19 03:54:15;;;;;;;6.97;2.70;;;8.60;99.90;;;;;;5074117;28;20250;-61
2022/09/19 03:56:43;;;;;;;7.10;2.63;;;8.60;99.90;;;;;;5074019;28;20191;-61
2022/09/19 03:59:11;;;;;;;14.20;2.73;;;8.60;99.90;;;;;;5074016;28;20200;-62
2022/09/19 04:01:40;;;;;;;5.53;2.63;;;8.70;99.90;;;;;;5073918;28;20192;-61
2022/09/19 04:04:46;;;;;;;10.40;2.40;;;8.70;99.90;;;;;;5074506;28;20210;-62
2022/09/19 04:07:16;;;;;;;15.40;3.27;;;8.80;99.90;;;;;;5107054;28;20279;-61
2022/09/19 04:09:44;;;;;;;11.57;3.00;;;8.80;99.90;;;;;;5073318;28;20196;-61
2022/09/19 04:12:13;;;;;;;7.73;2.60;;;8.80;99.90;;;;;;5074303;28;20188;-61
2022/09/19 04:14:42;;;;;;;7.70;3.23;;;8.90;99.90;;;;;;5072876;28;20219;-61
2022/09/19 04:17:11;;;;;;;8.40;2.60;;;8.90;99.90;;;;;;5072803;28;20241;-61
2022/09/19 04:19:52;;;;;;;5.63;2.70;;;8.90;99.90;;;;;;5073724;28;20192;-61
2022/09/19 04:22:22;;;;;;;7.27;2.63;;;9.00;99.90;;;;;;5073749;28;20224;-61
2022/09/19 04:24:51;;;;;;;7.07;2.50;;;9.00;99.90;;;;;;5073912;28;20184;-61
2022/09/19 04:27:20;;;;;;;4.93;2.50;;;9.00;99.90;;;;;;5073867;28;20237;-61
2022/09/19 04:29:48;;;;;;;6.20;2.70;;;9.00;99.90;;;;;;5072147;28;20188;-60
2022/09/19 04:32:17;;;;;;;6.50;2.70;;;9.00;99.90;;;;;;5073919;28;20193;-61
2022/09/19 04:34:47;;;;;;;9.27;2.97;;;9.00;99.90;;;;;;5073156;28;20200;-62
2022/09/19 04:37:15;;;;;;;11.60;3.07;;;9.00;99.90;;;;;;5072081;28;20199;-61
2022/09/19 04:39:48;;;;;;;7.30;2.57;;;9.10;99.90;;;;;;5073389;28;20196;-60
2022/09/19 04:42:16;;;;;;;11.53;3.03;;;9.10;99.90;;;;;;5073293;28;20207;-60
2022/09/19 04:44:45;;;;;;;8.47;2.80;;;9.20;99.90;;;;;;5072034;28;20226;-61
2022/09/19 04:47:14;;;;;;;14.10;2.97;;;9.20;99.90;;;;;;5073250;28;20231;-61
2022/09/19 04:49:42;;;;;;;5.60;2.70;;;9.20;99.90;;;;;;5105817;28;20568;-62
2022/09/19 04:52:12;;;;;;;12.13;3.20;;;9.20;99.90;;;;;;5073598;28;20196;-61
2022/09/19 04:54:41;;;;;;;10.23;2.90;;;9.30;99.90;;;;;;5073575;28;20188;-60
2022/09/19 04:57:11;;;;;;;5.90;2.40;;;9.30;99.90;;;;;;5073325;28;20192;-62
2022/09/19 04:59:39;;;;;;;7.40;2.80;;;9.30;99.90;;;;;;5073139;28;20677;-60
2022/09/19 05:02:08;;;;;;;10.00;2.70;;;9.30;99.90;;;;;;5072972;28;20198;-61
2022/09/19 05:04:38;;;;;;;6.00;2.47;;;9.30;99.90;;;;;;5071675;28;20216;-62
2022/09/19 05:07:08;;;;;;;8.90;2.80;;;9.30;99.90;;;;;;5073430;28;20193;-61
2022/09/19 05:09:36;;;;;;;7.67;2.60;;;9.30;99.90;;;;;;5073127;28;20199;-61
2022/09/19 05:12:09;;;;;;;10.00;3.30;;;9.40;99.90;;;;;;5073110;28;20198;-61
2022/09/19 05:14:39;;;;;;;14.17;3.03;;;9.40;99.90;;;;;;5071826;28;20168;-60
2022/09/19 05:17:07;;;;;;;8.03;2.93;;;9.40;99.90;;;;;;5071835;28;20211;-62
2022/09/19 05:19:36;;;;;;;10.63;2.90;;;9.50;99.90;;;;;;5055077;28;20192;-62
2022/09/19 05:22:06;;;;;;;6.60;2.57;;;9.50;99.90;;;;;;5072874;28;20207;-61
2022/09/19 05:24:37;;;;;;;9.43;3.00;;;9.50;99.90;;;;;;5071623;28;20224;-60
2022/09/19 05:27:06;;;;;;;13.63;3.00;;;9.60;99.90;;;;;;5071869;28;20216;-62
2022/09/19 05:29:39;;;;;;;11.07;3.27;;;9.60;99.90;;;;;;5072965;28;20196;-61
2022/09/19 05:32:09;;;;;;;9.07;2.93;;;9.70;99.90;;;;;;5071666;28;20191;-61
2022/09/19 05:34:38;;;;;;;11.40;2.97;;;9.70;99.90;;;;;;5073069;28;20291;-61
2022/09/19 05:37:06;;;;;;;7.77;2.83;;;9.70;99.90;;;;;;5072755;28;20196;-61
2022/09/19 05:39:35;;;;;;;5.20;2.60;;;9.80;99.90;;;;;;5072790;28;20275;-61
2022/09/19 05:42:03;;;;;;;6.87;2.97;;;9.80;99.90;;;;;;5071759;28;20184;-62
2022/09/19 05:44:31;;;;;;;9.67;3.00;;;9.80;99.90;;;;;;5072880;28;20671;-61
2022/09/19 05:47:01;;;;;;;7.27;2.70;;;9.90;99.90;;;;;;5072725;28;20314;-61
2022/09/19 05:49:32;;;;;;;12.00;3.33;;;9.90;99.90;;;;;;5072544;28;20192;-61
2022/09/19 05:53:51;;;;;;;4.40;2.50;;;9.90;99.90;;;;;;5072645;28;20642;-61
2022/09/19 05:54:49;;;;;;;7.50;3.43;;;10.00;99.90;;;;;;5072649;28;20706;-61
2022/09/19 05:57:17;;;;;;;3.83;2.73;;;10.00;99.90;;;;;;5072595;28;20194;-61
2022/09/19 05:59:46;;;;;;;8.00;3.20;;;10.10;99.90;;;;;;5072673;28;20246;-61
2022/09/19 06:02:14;;;;;;;8.93;3.13;;;10.10;99.90;;;;;;5074405;28;20566;-61
2022/09/19 06:04:44;;;;;;;8.53;3.40;;;10.20;99.90;;;;;;5076052;28;20207;-61
2022/09/19 06:07:13;;;;;;;5.37;2.67;;;10.20;99.90;;;;;;5076128;28;20192;-61
2022/09/19 06:09:42;;;;;;;7.53;3.03;;;10.30;99.90;;;;;;5076255;28;20193;-61
2022/09/19 06:12:10;;;;;;;13.20;3.67;;;10.30;99.90;;;;;;5076318;28;20191;-61
2022/09/19 06:14:39;;;;;;;12.33;4.30;;;10.40;99.90;;;;;;5076366;28;20188;-61
2022/09/19 06:17:08;;;;;;;10.90;3.23;;;10.40;99.90;;;;;;5075880;28;20204;-61
2022/09/19 06:19:36;;;;;;;9.63;3.30;;;10.50;99.90;;;;;;5057998;28;20184;-60
2022/09/19 06:22:06;;;;;;;9.10;3.20;;;10.60;99.90;;;;;;5075906;28;20188;-61
2022/09/19 06:24:34;;;;;;;8.67;3.47;;;10.60;99.90;;;;;;5075560;28;20216;-60
2022/09/19 06:27:05;;;;;;;7.73;3.10;;;10.70;99.90;;;;;;5076063;28;20208;-61
2022/09/19 06:29:33;;;;;;;8.43;3.23;;;10.70;99.90;;;;;;5075701;28;20185;-60
2022/09/19 06:32:07;;;;;;;6.10;3.10;;;10.70;99.90;;;;;;5075963;28;20200;-60
2022/09/19 06:34:36;;;;;;;9.90;3.67;;;10.80;99.90;;;;;;5075787;28;20222;-61
2022/09/19 06:37:26;;;;;;;12.07;3.80;;;10.80;99.90;;;;;;5075696;28;20192;-61
2022/09/19 06:39:54;;;;;;;12.17;3.63;;;10.80;99.90;;;;;;5075658;28;20192;-60
2022/09/19 06:42:22;;;;;;;11.87;3.53;;;10.80;99.90;;;;;;5074479;28;20219;-61
2022/09/19 06:44:56;;;;;;;8.13;3.40;;;10.70;99.90;;;;;;5075741;28;20261;-60
2022/09/19 06:47:24;;;;;;;10.17;3.93;;;10.70;99.90;;;;;;5074395;28;20228;-61
2022/09/19 06:49:53;;;;;;;9.30;3.50;;;10.70;99.90;;;;;;5057524;28;20195;-60
2022/09/19 06:52:23;;;;;;;12.13;3.13;;;10.80;99.90;;;;;;5075400;28;20275;-60
2022/09/19 06:54:53;;;;;;;5.63;3.47;;;11.00;99.90;;;;;;5075750;28;20189;-60
2022/09/19 06:57:22;;;;;;;9.50;4.00;;;11.20;99.90;;;;;;5075273;28;20188;-61
2022/09/19 06:59:50;;;;;;;7.70;4.00;;;11.40;99.90;;;;;;5075302;28;20192;-60
2022/09/19 07:02:21;;;;;;;6.53;3.30;;;11.60;99.90;;;;;;5075332;28;20642;-60
2022/09/19 07:04:49;;;;;;;6.70;3.33;;;11.70;99.90;;;;;;5075645;28;20299;-60
2022/09/19 07:07:17;;;;;;;9.57;3.23;;;11.80;99.90;;;;;;5073838;28;20677;-60
2022/09/19 07:09:46;;;;;;;9.97;3.00;;;11.90;99.90;;;;;;5073910;28;20196;-60
2022/09/19 07:12:15;;;;;;;6.40;3.27;;;12.00;99.90;;;;;;5074972;28;20188;-60
2022/09/19 07:14:49;;;;;;;7.80;3.40;;;12.20;99.90;;;;;;5074444;28;20192;-60
2022/09/19 07:17:18;;;;;;;9.73;3.63;;;12.40;99.90;;;;;;5075154;28;20192;-61
2022/09/19 07:19:46;;;;;;;10.40;3.73;;;12.60;99.90;;;;;;5073704;28;20202;-60
2022/09/19 07:22:15;;;;;;;10.37;3.57;;;12.80;99.90;;;;;;5074729;28;20193;-61
2022/09/19 07:24:44;;;;;;;9.97;3.40;;;13.20;99.90;;;;;;5061786;28;20213;-61
2022/09/19 07:32:05;;;;;;;8.90;2.97;;;13.30;99.90;;;;;;5054931;28;20152;-61
2022/09/19 07:34:33;;;;;;;9.90;2.93;;;13.00;99.90;;;;;;5054631;28;20188;-61
2022/09/19 07:37:01;;;;;;;13.33;2.97;;;12.90;99.90;;;;;;5054582;28;20199;-60
2022/09/19 07:39:30;;;;;;;4.57;2.80;;;12.80;99.90;;;;;;5055101;28;20203;-61
2022/09/19 07:42:20;;;;;;;11.87;3.67;;;12.80;99.90;;;;;;5054868;28;20197;-61
2022/09/19 07:44:48;;;;;;;11.00;3.63;;;12.80;99.90;;;;;;5054395;28;20211;-60
2022/09/19 07:47:29;;;;;;;9.80;3.17;;;12.80;99.90;;;;;;5065922;28;20223;-61
2022/09/19 07:49:58;;;;;;;10.10;3.47;;;12.80;99.90;;;;;;5074531;28;20534;-61
2022/09/19 07:52:26;;;;;;;9.10;3.43;;;12.80;99.90;;;;;;5073511;28;20196;-62
2022/09/19 07:54:54;;;;;;;9.67;3.50;;;12.90;99.90;;;;;;5073564;28;20195;-61
2022/09/19 07:57:25;;;;;;;13.30;3.40;;;13.00;99.90;;;;;;5072788;28;20192;-61
2022/09/19 07:59:54;;;;;;;10.20;3.37;;;13.10;99.90;;;;;;5074640;28;20188;-61
2022/09/19 08:02:24;;;;;;;7.87;3.30;;;13.20;99.90;;;;;;5074153;28;20195;-60
2022/09/19 08:04:53;;;;;;;8.00;3.00;;;13.40;99.90;;;;;;5074393;28;20204;-61
2022/09/19 08:07:23;;;;;;;14.93;3.57;;;13.60;99.90;;;;;;5073740;28;20196;-60
2022/09/19 08:09:52;;;;;;;7.93;2.53;;;13.80;99.90;;;;;;5072882;28;20199;-60
2022/09/19 08:12:20;;;;;;;6.73;2.90;;;13.90;99.90;;;;;;5073928;28;20664;-61
2022/09/19 08:14:48;;;;;;;12.47;3.13;;;14.00;99.90;;;;;;5074253;28;20189;-61
2022/09/19 08:17:18;;;;;;;7.97;2.70;;;14.00;99.90;;;;;;5073727;28;20655;-60
2022/09/19 08:19:48;;;;;;;8.67;3.27;;;14.00;99.90;;;;;;5073854;28;20196;-60
2022/09/19 08:22:17;;;;;;;5.33;2.60;;;14.10;99.90;;;;;;5073847;28;20184;-61
2022/09/19 08:24:45;;;;;;;7.60;2.83;;;14.20;99.90;;;;;;5073517;28;20528;-60
2022/09/19 08:27:14;;;;;;;8.70;2.57;;;14.20;99.90;;;;;;5073736;28;20186;-60
2022/09/19 08:29:43;;;;;;;7.47;2.43;;;14.30;99.90;;;;;;5106182;28;20193;-61
2022/09/19 08:32:11;;;;;;;6.67;2.70;;;14.40;99.90;;;;;;5073820;28;20190;-60
2022/09/19 08:34:39;;;;;;;12.70;2.83;;;14.50;99.90;;;;;;5073701;28;20193;-60
2022/09/19 08:37:10;;;;;;;5.43;2.60;;;14.60;99.90;;;;;;5074016;28;20201;-60
2022/09/19 08:40:15;;;;;;;8.30;2.30;;;14.60;99.90;;;;;;5073630;28;20197;-61
2022/09/19 08:42:34;;;;;;;4.63;2.43;;;14.70;99.90;;;;;;5073164;28;20534;-60
2022/09/19 08:45:07;;;;;;;6.30;2.67;;;14.90;99.90;;;;;;5073584;28;20207;-60
2022/09/19 08:47:39;;;;;;;7.67;2.50;;;15.10;99.90;;;;;;5073334;28;20229;-60
2022/09/19 08:50:14;;;;;;;16.47;2.87;;;15.20;99.90;;;;;;5073803;28;20197;-61
2022/09/19 08:52:46;;;;;;;11.13;2.20;;;15.30;99.90;;;;;;5073532;28;20189;-61
2022/09/19 08:55:18;;;;;;;4.27;1.87;;;15.30;99.90;;;;;;5073286;28;20211;-61
2022/09/19 08:57:53;;;;;;;5.37;2.00;;;15.40;99.90;;;;;;5073151;28;20219;-60
2022/09/19 09:00:23;;;;;;;8.23;2.20;;;15.40;99.90;;;;;;5073381;28;20175;-60
2022/09/19 09:02:56;;;;;;;7.33;2.47;;;15.60;99.90;;;;;;5073545;28;20199;-60
2022/09/19 09:05:44;;;;;;;5.10;1.80;;;15.70;99.90;;;;;;5106064;28;20246;-61
2022/09/19 09:08:29;;;;;;;6.83;1.93;;;15.80;99.90;;;;;;5073687;28;20258;-61
2022/09/19 09:11:08;;;;;;;7.27;2.10;;;15.90;99.90;;;;;;5073447;28;20646;-61
2022/09/19 09:13:48;;;;;;;7.27;2.10;;;15.90;99.90;;;;;;5073350;28;20650;-60
2022/09/19 09:16:41;;;;;;;5.63;2.00;;;16.10;99.90;;;;;;5072922;28;20674;-60
2022/09/19 09:19:25;;;;;;;6.90;1.90;;;16.20;99.90;;;;;;5073150;28;20199;-60
2022/09/19 09:22:04;;;;;;;4.73;1.80;;;16.10;99.90;;;;;;5073460;28;20195;-60
2022/09/19 09:24:37;;;;;;;8.03;1.90;;;16.20;99.90;;;;;;5073173;28;20184;-60
2022/09/19 09:27:14;;;;;;;5.23;2.10;;;16.10;99.90;;;;;;5072883;28;20211;-60
2022/09/19 09:29:46;;;;;;;5.77;1.70;;;16.00;99.90;;;;;;5073243;28;20191;-61
2022/09/19 09:32:20;;;;;;;7.27;1.80;;;15.90;99.90;;;;;;5073028;28;20195;-60
2022/09/19 09:34:56;;;;;;;4.47;1.50;;;15.90;99.90;;;;;;5073529;28;20217;-61
2022/09/19 09:37:29;;;;;;;6.20;1.93;;;16.00;99.90;;;;;;5075233;28;20190;-60
2022/09/19 09:40:09;;;;;;;5.13;1.87;;;16.00;99.90;;;;;;5077038;28;20186;-61
2022/09/19 09:42:48;;;;;;;5.57;1.93;;;15.90;99.90;;;;;;5077201;28;20190;-60
2022/09/19 09:45:22;;;;;;;11.70;1.80;;;15.70;99.90;;;;;;5076840;28;20192;-61
2022/09/19 09:48:03;;;;;;;8.20;1.90;;;15.80;99.90;;;;;;5077090;28;20224;-61
2022/09/19 09:50:50;;;;;;;6.23;2.30;;;15.80;99.90;;;;;;5076871;28;20191;-61
2022/09/19 09:53:32;;;;;;;5.43;2.10;;;15.90;99.90;;;;;;5076565;28;20192;-60
2022/09/19 09:56:16;;;;;;;4.73;1.83;;;16.10;99.90;;;;;;5075573;28;20211;-61
2022/09/19 10:05:47;;;;;;;5.87;2.07;;;16.60;99.90;;;;;;5074569;28;20689;-61
2022/09/19 10:08:20;;;;;;;9.37;2.40;;;16.10;99.90;;;;;;5075636;28;20186;-60
2022/09/19 10:10:53;;;;;;;5.87;1.80;;;15.70;99.90;;;;;;5076248;28;20194;-61
2022/09/19 10:13:27;;;;;;;5.00;1.83;;;15.40;99.90;;;;;;5076406;28;20202;-61
2022/09/19 10:16:02;;;;;;;5.87;1.90;;;15.20;99.90;;;;;;5108939;28;20229;-60
2022/09/19 10:18:40;;;;;;;6.73;2.10;;;15.20;99.90;;;;;;5076030;28;20194;-60
2022/09/19 10:21:08;;;;;;;5.40;1.97;;;15.20;99.90;;;;;;5076314;28;20199;-60
2022/09/19 10:23:37;;;;;;;6.57;2.17;;;15.20;99.90;;;;;;5075991;28;20186;-61
2022/09/19 10:26:14;;;;;;;8.97;1.80;;;15.40;99.90;;;;;;5076068;28;20226;-61
2022/09/19 10:28:52;;;;;;;6.17;2.30;;;15.40;99.90;;;;;;5075804;28;20650;-60
2022/09/19 10:31:31;;;;;;;6.33;2.30;;;15.60;99.90;;;;;;5075706;28;20194;-61
2022/09/19 10:34:06;;;;;;;5.17;2.00;;;15.50;99.90;;;;;;5075834;28;20281;-61
2022/09/19 10:36:46;;;;;;;6.97;1.93;;;15.50;99.90;;;;;;5075940;28;20244;-61
2022/09/19 10:39:19;;;;;;;2.23;1.60;;;15.60;99.90;;;;;;5056999;28;20189;-60
2022/09/19 10:41:47;;;;;;;5.13;1.50;;;15.70;99.90;;;;;;5075470;28;20286;-61
2022/09/19 10:44:23;;;;;;;3.67;1.57;;;15.90;99.90;;;;;;5075431;28;20205;-60
2022/09/19 10:46:55;;;;;;;2.47;1.30;;;16.00;99.90;;;;;;5075199;28;20227;-60
2022/09/19 10:49:26;;;;;;;4.07;1.50;;;16.10;99.90;;;;;;5075310;28;20196;-61
2022/09/19 10:51:59;;;;;;;3.23;1.57;;;16.30;99.90;;;;;;5071067;28;20536;-61
2022/09/19 10:54:36;;;;;;;1.83;1.30;;;16.60;99.90;;;;;;5055570;28;20203;-61
2022/09/19 10:57:05;;;;;;;6.93;1.43;;;16.50;99.90;;;;;;5055240;28;20266;-61
2022/09/19 10:59:38;;;;;;;2.83;1.50;;;16.60;99.90;;;;;;5061410;28;20184;-61
2022/09/19 11:02:28;;;;;;;3.60;1.50;;;16.80;99.90;;;;;;5075236;28;20199;-61
2022/09/19 11:05:00;;;;;;;2.37;1.63;;;17.10;99.90;;;;;;5069983;28;20203;-61
2022/09/19 11:07:32;;;;;;;5.00;1.33;;;17.10;99.90;;;;;;5075101;28;20211;-61
2022/09/19 11:10:04;;;;;;;1.87;1.33;;;17.10;99.90;;;;;;5075328;28;20306;-61
2022/09/19 11:12:32;;;;;;;8.37;1.60;;;17.00;99.90;;;;;;5075196;28;20569;-61
2022/09/19 11:15:03;;;;;;;4.40;1.40;;;16.90;99.90;;;;;;5075157;28;20199;-61
2022/09/19 11:17:55;;;;;;;3.30;1.53;;;17.10;99.90;;;;;;5075171;28;20184;-61
2022/09/19 11:20:34;;;;;;;4.80;1.37;;;17.40;99.90;;;;;;5075330;28;20591;-61
2022/09/19 11:23:31;;;;;;;1.93;1.40;;;18.10;99.90;;;;;;5075036;28;20195;-61
2022/09/19 11:26:11;;;;;;;3.63;1.53;;;18.80;99.90;;;;;;5072960;28;20208;-61
2022/09/19 11:28:51;;;;;;;4.97;1.50;;;19.30;99.90;;;;;;5074671;28;20681;-61
2022/09/19 11:31:34;;;;;;;3.33;1.40;;;19.50;99.90;;;;;;5072278;28;20216;-61
2022/09/19 11:34:31;;;;;;;5.27;1.70;;;19.20;99.90;;;;;;5074554;28;20727;-61
2022/09/19 11:37:41;;;;;;;4.90;1.67;;;18.70;99.90;;;;;;5074448;28;20246;-61
2022/09/19 11:40:30;;;;;;;4.53;1.70;;;18.30;99.90;;;;;;5073259;28;20626;-61
2022/09/19 11:43:14;;;;;;;6.33;1.60;;;18.10;99.90;;;;;;5073558;28;20234;-61
2022/09/19 11:45:54;;;;;;;9.00;1.87;;;18.10;99.90;;;;;;5074126;28;20246;-61
2022/09/19 11:48:54;;;;;;;4.40;1.80;;;18.00;99.90;;;;;;5073264;28;20269;-61
2022/09/19 11:51:30;;;;;;;3.80;1.60;;;18.00;99.90;;;;;;5074336;28;20543;-61
2022/09/19 11:54:15;;;;;;;3.33;1.70;;;18.00;99.90;;;;;;5074192;28;20194;-61
2022/09/19 11:57:06;;;;;;;7.40;2.17;;;18.00;99.90;;;;;;5073177;28;20607;-61
2022/09/19 12:00:02;;;;;;;4.50;1.57;;;18.00;99.90;;;;;;5073403;28;20538;-61
2022/09/19 12:02:58;;;;;;;5.37;1.40;;;17.90;99.90;;;;;;5074570;28;20196;-61
2022/09/19 12:05:37;;;;;;;4.83;1.57;;;18.00;99.90;;;;;;5059721;28;20228;-61
2022/09/19 12:08:19;;;;;;;3.23;1.40;;;18.10;99.90;;;;;;5053840;28;20631;-61
2022/09/19 12:10:54;;;;;;;8.07;1.70;;;18.20;99.90;;;;;;5064341;28;20200;-61
2022/09/19 12:13:26;;;;;;;4.87;1.50;;;18.20;99.90;;;;;;5073460;28;20249;-61
2022/09/19 12:16:01;;;;;;;4.73;2.17;;;18.30;99.90;;;;;;5073797;28;20208;-61
2022/09/19 12:19:09;;;;;;;6.80;2.10;;;18.60;99.90;;;;;;5074001;28;20192;-60
2022/09/19 12:21:46;;;;;;;5.40;1.47;;;18.80;99.90;;;;;;5073823;28;20192;-61
2022/09/19 12:27:12;;;;;;;3.70;1.30;;;18.80;99.90;;;;;;5056566;28;20208;-61
2022/09/19 12:29:48;;;;;;;6.63;1.27;;;18.70;99.90;;;;;;5053815;28;20195;-61
2022/09/19 12:32:23;;;;;;;4.20;1.10;;;18.70;99.90;;;;;;5053679;28;20185;-61
2022/09/19 12:35:00;;;;;;;4.33;1.47;;;18.90;99.90;;;;;;5053997;28;20191;-61
2022/09/19 12:37:38;;;;;;;6.13;1.40;;;19.00;99.90;;;;;;5053687;28;20202;-61
2022/09/19 12:40:18;;;;;;;2.67;1.30;;;19.00;99.90;;;;;;5073426;28;20200;-60
2022/09/19 12:42:53;;;;;;;3.50;1.40;;;19.10;99.90;;;;;;5072333;28;20697;-61
2022/09/19 12:45:26;;;;;;;2.87;1.30;;;19.50;99.90;;;;;;5073600;28;20199;-61
2022/09/19 12:48:06;;;;;;;2.63;1.50;;;19.50;99.90;;;;;;5073277;28;20231;-61
2022/09/19 12:50:37;;;;;;;10.27;1.33;;;19.60;99.90;;;;;;5073590;28;20192;-60
2022/09/19 12:53:18;;;;;;;6.33;1.30;;;19.60;99.90;;;;;;5073405;28;20192;-61
2022/09/19 12:55:57;;;;;;;4.07;1.40;;;19.60;99.90;;;;;;5073359;28;20200;-60
2022/09/19 12:58:28;;;;;;;3.93;1.27;;;19.70;99.90;;;;;;5073160;28;20505;-61
2022/09/19 13:01:12;;;;;;;3.70;1.10;;;19.70;99.90;;;;;;5073318;28;20253;-60
2022/09/19 13:03:45;;;;;;;8.13;1.40;;;19.60;99.90;;;;;;5073222;28;20237;-61
2022/09/19 13:06:18;;;;;;;6.00;1.70;;;19.70;99.90;;;;;;5073291;28;20199;-61
2022/09/19 13:08:53;;;;;;;6.53;1.17;;;19.70;99.90;;;;;;5073235;28;20227;-60
2022/09/19 13:11:28;;;;;;;2.67;1.30;;;20.10;99.90;;;;;;5075215;28;20583;-61
2022/09/19 13:14:33;;;;;;;5.03;1.50;;;20.30;99.90;;;;;;5109715;28;20200;-61
2022/09/19 13:25:35;;;;;;;3.97;1.33;;;20.70;99.90;;;;;;5077069;28;20196;-62
2022/09/19 13:28:28;;;;;;;5.83;1.47;;;20.80;99.90;;;;;;5076781;28;20223;-60
2022/09/19 13:31:12;;;;;;;8.17;1.93;;;21.00;99.90;;;;;;5076602;28;20199;-60
2022/09/19 13:33:45;;;;;;;3.10;1.50;;;20.90;99.90;;;;;;5056901;28;20192;-60
2022/09/19 13:36:16;;;;;;;4.97;1.57;;;20.50;99.90;;;;;;5055331;28;20217;-60
2022/09/19 13:38:49;;;;;;;3.77;1.37;;;20.20;99.90;;;;;;5062115;28;20191;-60
2022/09/19 13:41:27;;;;;;;4.00;1.40;;;20.10;99.90;;;;;;5076353;28;20639;-60
2022/09/19 13:44:06;;;;;;;3.80;1.70;;;20.00;99.90;;;;;;5076229;28;20201;-60
2022/09/19 13:46:41;;;;;;;4.87;1.50;;;19.90;99.90;;;;;;5075792;28;20228;-60
2022/09/19 13:49:19;;;;;;;3.73;1.77;;;19.70;99.90;;;;;;5076184;28;20223;-61
2022/09/19 13:51:56;;;;;;;2.70;1.10;;;19.50;99.90;;;;;;5108938;28;20245;-60
2022/09/19 13:55:02;;;;;;;3.03;1.60;;;19.30;99.90;;;;;;5076123;28;20184;-61
2022/09/19 13:57:33;;;;;;;7.80;1.50;;;19.30;99.90;;;;;;5076087;28;20194;-61
2022/09/19 14:00:13;;;;;;;2.83;1.33;;;19.20;99.90;;;;;;5082239;28;20206;-61